sensor_id;sensor_type;location;lat;lon;timestamp;P1;durP1;ratioP1;P2;durP2;ratioP2
35290;SDS011;21411;50.024;19.220;2022-08-18T00:01:42;35.90;;;32.30;;
35290;SDS011;21411;50.024;19.220;2022-08-18T00:04:13;36.80;;;33.40;;
35290;SDS011;21411;50.024;19.220;2022-08-18T00:06:41;35.20;;;32.00;;
35290;SDS011;21411;50.024;19.220;2022-08-18T00:09:08;34.60;;;31.30;;
35290;SDS011;21411;50.024;19.220;2022-08-18T00:11:38;34.00;;;31.10;;
35290;SDS011;21411;50.024;19.220;2022-08-18T00:14:06;34.30;;;31.30;;
35290;SDS011;21411;50.024;19.220;2022-08-18T00:16:35;35.60;;;32.40;;
35290;SDS011;21411;50.024;19.220;2022-08-18T00:19:02;35.30;;;31.80;;
35290;SDS011;21411;50.024;19.220;2022-08-18T00:21:28;35.80;;;32.60;;
35290;SDS011;21411;50.024;19.220;2022-08-18T00:23:55;32.90;;;30.10;;
35290;SDS011;21411;50.024;19.220;2022-08-18T00:26:21;31.20;;;28.60;;
35290;SDS011;21411;50.024;19.220;2022-08-18T00:28:48;33.10;;;30.20;;
35290;SDS011;21411;50.024;19.220;2022-08-18T00:31:15;32.90;;;29.90;;
35290;SDS011;21411;50.024;19.220;2022-08-18T00:33:41;35.20;;;32.30;;
35290;SDS011;21411;50.024;19.220;2022-08-18T00:36:09;35.10;;;32.00;;
35290;SDS011;21411;50.024;19.220;2022-08-18T00:38:37;37.90;;;34.70;;
35290;SDS011;21411;50.024;19.220;2022-08-18T00:41:04;35.30;;;32.30;;
35290;SDS011;21411;50.024;19.220;2022-08-18T00:46:29;37.70;;;34.50;;
35290;SDS011;21411;50.024;19.220;2022-08-18T00:48:56;35.20;;;32.10;;
35290;SDS011;21411;50.024;19.220;2022-08-18T00:51:25;36.40;;;33.20;;
35290;SDS011;21411;50.024;19.220;2022-08-18T00:53:56;34.30;;;31.10;;
35290;SDS011;21411;50.024;19.220;2022-08-18T00:56:29;33.20;;;30.10;;
35290;SDS011;21411;50.024;19.220;2022-08-18T01:02:01;39.80;;;36.20;;
35290;SDS011;21411;50.024;19.220;2022-08-18T01:07:44;35.50;;;32.30;;
35290;SDS011;21411;50.024;19.220;2022-08-18T01:10:16;37.30;;;34.00;;
35290;SDS011;21411;50.024;19.220;2022-08-18T01:12:45;36.00;;;32.70;;
35290;SDS011;21411;50.024;19.220;2022-08-18T01:15:16;37.50;;;34.20;;
35290;SDS011;21411;50.024;19.220;2022-08-18T01:17:44;39.70;;;36.00;;
35290;SDS011;21411;50.024;19.220;2022-08-18T01:20:35;33.70;;;30.70;;
35290;SDS011;21411;50.024;19.220;2022-08-18T01:23:27;34.90;;;31.80;;
35290;SDS011;21411;50.024;19.220;2022-08-18T01:25:55;34.90;;;31.70;;
35290;SDS011;21411;50.024;19.220;2022-08-18T01:28:26;38.60;;;35.00;;
35290;SDS011;21411;50.024;19.220;2022-08-18T01:30:54;39.50;;;35.80;;
35290;SDS011;21411;50.024;19.220;2022-08-18T01:33:24;36.50;;;33.40;;
35290;SDS011;21411;50.024;19.220;2022-08-18T01:35:52;38.10;;;34.70;;
35290;SDS011;21411;50.024;19.220;2022-08-18T01:38:19;37.90;;;34.40;;
35290;SDS011;21411;50.024;19.220;2022-08-18T01:40:51;39.20;;;35.70;;
35290;SDS011;21411;50.024;19.220;2022-08-18T01:43:19;38.00;;;34.50;;
35290;SDS011;21411;50.024;19.220;2022-08-18T01:45:46;38.60;;;35.00;;
35290;SDS011;21411;50.024;19.220;2022-08-18T01:48:13;38.20;;;34.90;;
35290;SDS011;21411;50.024;19.220;2022-08-18T01:50:40;40.60;;;37.10;;
35290;SDS011;21411;50.024;19.220;2022-08-18T01:53:09;33.00;;;30.20;;
35290;SDS011;21411;50.024;19.220;2022-08-18T01:55:38;34.70;;;31.60;;
35290;SDS011;21411;50.024;19.220;2022-08-18T01:58:09;33.90;;;30.90;;
35290;SDS011;21411;50.024;19.220;2022-08-18T02:00:37;35.70;;;32.60;;
35290;SDS011;21411;50.024;19.220;2022-08-18T02:03:06;43.50;;;39.50;;
35290;SDS011;21411;50.024;19.220;2022-08-18T02:05:38;45.50;;;41.30;;
35290;SDS011;21411;50.024;19.220;2022-08-18T02:08:13;42.10;;;38.20;;
35290;SDS011;21411;50.024;19.220;2022-08-18T02:10:41;42.30;;;38.70;;
35290;SDS011;21411;50.024;19.220;2022-08-18T02:13:08;43.80;;;39.90;;
35290;SDS011;21411;50.024;19.220;2022-08-18T02:15:34;45.20;;;41.00;;
35290;SDS011;21411;50.024;19.220;2022-08-18T02:18:01;44.40;;;40.50;;
35290;SDS011;21411;50.024;19.220;2022-08-18T02:20:27;48.00;;;43.70;;
35290;SDS011;21411;50.024;19.220;2022-08-18T02:22:54;47.70;;;43.10;;
35290;SDS011;21411;50.024;19.220;2022-08-18T02:25:21;43.00;;;39.00;;
35290;SDS011;21411;50.024;19.220;2022-08-18T02:27:48;42.30;;;38.50;;
35290;SDS011;21411;50.024;19.220;2022-08-18T02:30:15;40.10;;;36.50;;
35290;SDS011;21411;50.024;19.220;2022-08-18T02:32:43;38.90;;;35.40;;
35290;SDS011;21411;50.024;19.220;2022-08-18T02:35:10;39.00;;;35.70;;
35290;SDS011;21411;50.024;19.220;2022-08-18T02:37:37;43.00;;;39.10;;
35290;SDS011;21411;50.024;19.220;2022-08-18T02:40:05;42.00;;;38.10;;
35290;SDS011;21411;50.024;19.220;2022-08-18T02:42:33;42.60;;;38.70;;
35290;SDS011;21411;50.024;19.220;2022-08-18T02:44:59;45.30;;;41.10;;
35290;SDS011;21411;50.024;19.220;2022-08-18T02:47:26;44.60;;;40.40;;
35290;SDS011;21411;50.024;19.220;2022-08-18T02:49:53;43.70;;;39.70;;
35290;SDS011;21411;50.024;19.220;2022-08-18T02:52:19;42.00;;;38.30;;
35290;SDS011;21411;50.024;19.220;2022-08-18T02:54:46;43.10;;;38.90;;
35290;SDS011;21411;50.024;19.220;2022-08-18T02:57:13;44.20;;;40.30;;
35290;SDS011;21411;50.024;19.220;2022-08-18T02:59:40;47.80;;;43.40;;
35290;SDS011;21411;50.024;19.220;2022-08-18T03:02:08;47.60;;;43.30;;
35290;SDS011;21411;50.024;19.220;2022-08-18T03:04:35;52.70;;;47.80;;
35290;SDS011;21411;50.024;19.220;2022-08-18T03:07:03;55.40;;;50.20;;
35290;SDS011;21411;50.024;19.220;2022-08-18T03:09:31;59.40;;;53.90;;
35290;SDS011;21411;50.024;19.220;2022-08-18T03:11:59;51.70;;;47.00;;
35290;SDS011;21411;50.024;19.220;2022-08-18T03:14:26;56.50;;;51.50;;
35290;SDS011;21411;50.024;19.220;2022-08-18T03:16:53;56.00;;;50.80;;
35290;SDS011;21411;50.024;19.220;2022-08-18T03:19:26;56.40;;;51.30;;
35290;SDS011;21411;50.024;19.220;2022-08-18T03:21:55;55.90;;;50.70;;
35290;SDS011;21411;50.024;19.220;2022-08-18T03:24:24;54.40;;;49.50;;
35290;SDS011;21411;50.024;19.220;2022-08-18T03:26:53;55.00;;;49.60;;
35290;SDS011;21411;50.024;19.220;2022-08-18T03:29:22;53.60;;;48.50;;
35290;SDS011;21411;50.024;19.220;2022-08-18T03:31:49;49.40;;;44.90;;
35290;SDS011;21411;50.024;19.220;2022-08-18T03:34:17;48.50;;;44.30;;
35290;SDS011;21411;50.024;19.220;2022-08-18T03:36:46;49.10;;;44.60;;
35290;SDS011;21411;50.024;19.220;2022-08-18T03:39:15;44.10;;;40.30;;
35290;SDS011;21411;50.024;19.220;2022-08-18T03:41:43;42.90;;;39.20;;
35290;SDS011;21411;50.024;19.220;2022-08-18T03:44:12;40.70;;;37.10;;
35290;SDS011;21411;50.024;19.220;2022-08-18T03:46:40;44.40;;;40.50;;
35290;SDS011;21411;50.024;19.220;2022-08-18T03:49:08;41.60;;;37.80;;
35290;SDS011;21411;50.024;19.220;2022-08-18T03:51:35;46.70;;;42.30;;
35290;SDS011;21411;50.024;19.220;2022-08-18T03:54:03;40.70;;;37.10;;
35290;SDS011;21411;50.024;19.220;2022-08-18T03:56:32;40.50;;;36.90;;
35290;SDS011;21411;50.024;19.220;2022-08-18T03:59:02;37.40;;;34.10;;
35290;SDS011;21411;50.024;19.220;2022-08-18T04:01:31;37.00;;;33.60;;
35290;SDS011;21411;50.024;19.220;2022-08-18T04:04:02;38.90;;;35.40;;
35290;SDS011;21411;50.024;19.220;2022-08-18T04:08:59;39.80;;;36.30;;
35290;SDS011;21411;50.024;19.220;2022-08-18T04:11:30;42.30;;;38.30;;
35290;SDS011;21411;50.024;19.220;2022-08-18T04:16:26;42.00;;;38.00;;
35290;SDS011;21411;50.024;19.220;2022-08-18T04:18:54;42.80;;;38.80;;
35290;SDS011;21411;50.024;19.220;2022-08-18T04:21:28;41.10;;;37.40;;
35290;SDS011;21411;50.024;19.220;2022-08-18T04:23:56;38.00;;;34.60;;
35290;SDS011;21411;50.024;19.220;2022-08-18T04:26:28;37.90;;;34.60;;
35290;SDS011;21411;50.024;19.220;2022-08-18T04:28:55;39.20;;;35.70;;
35290;SDS011;21411;50.024;19.220;2022-08-18T04:31:21;39.60;;;36.00;;
35290;SDS011;21411;50.024;19.220;2022-08-18T04:33:49;37.80;;;34.50;;
35290;SDS011;21411;50.024;19.220;2022-08-18T04:36:16;36.10;;;32.90;;
35290;SDS011;21411;50.024;19.220;2022-08-18T04:38:43;35.10;;;32.00;;
35290;SDS011;21411;50.024;19.220;2022-08-18T04:41:11;36.20;;;33.30;;
35290;SDS011;21411;50.024;19.220;2022-08-18T04:43:39;34.90;;;31.70;;
35290;SDS011;21411;50.024;19.220;2022-08-18T04:46:06;34.10;;;31.40;;
35290;SDS011;21411;50.024;19.220;2022-08-18T04:48:36;36.70;;;33.50;;
35290;SDS011;21411;50.024;19.220;2022-08-18T04:51:09;37.20;;;33.90;;
35290;SDS011;21411;50.024;19.220;2022-08-18T04:53:38;37.00;;;34.00;;
35290;SDS011;21411;50.024;19.220;2022-08-18T04:56:16;36.90;;;33.70;;
35290;SDS011;21411;50.024;19.220;2022-08-18T04:58:52;36.10;;;33.20;;
35290;SDS011;21411;50.024;19.220;2022-08-18T05:01:28;33.20;;;30.20;;
35290;SDS011;21411;50.024;19.220;2022-08-18T05:03:56;31.70;;;29.10;;
35290;SDS011;21411;50.024;19.220;2022-08-18T05:06:25;30.40;;;27.90;;
35290;SDS011;21411;50.024;19.220;2022-08-18T05:08:55;30.40;;;27.80;;
35290;SDS011;21411;50.024;19.220;2022-08-18T05:11:25;30.60;;;27.70;;
35290;SDS011;21411;50.024;19.220;2022-08-18T05:13:55;28.30;;;25.80;;
35290;SDS011;21411;50.024;19.220;2022-08-18T05:16:25;28.90;;;26.50;;
35290;SDS011;21411;50.024;19.220;2022-08-18T05:18:53;27.60;;;25.20;;
35290;SDS011;21411;50.024;19.220;2022-08-18T05:21:20;28.80;;;26.00;;
35290;SDS011;21411;50.024;19.220;2022-08-18T05:23:47;26.80;;;24.50;;
35290;SDS011;21411;50.024;19.220;2022-08-18T05:26:16;27.00;;;24.80;;
35290;SDS011;21411;50.024;19.220;2022-08-18T05:28:44;26.40;;;24.00;;
35290;SDS011;21411;50.024;19.220;2022-08-18T05:31:16;27.10;;;24.80;;
35290;SDS011;21411;50.024;19.220;2022-08-18T05:33:45;28.40;;;25.90;;
35290;SDS011;21411;50.024;19.220;2022-08-18T05:39:11;28.20;;;25.90;;
35290;SDS011;21411;50.024;19.220;2022-08-18T05:44:40;27.20;;;24.80;;
35290;SDS011;21411;50.024;19.220;2022-08-18T05:49:54;26.00;;;23.70;;
35290;SDS011;21411;50.024;19.220;2022-08-18T05:55:22;28.30;;;25.90;;
35290;SDS011;21411;50.024;19.220;2022-08-18T05:58:32;28.80;;;26.20;;
35290;SDS011;21411;50.024;19.220;2022-08-18T06:01:23;26.80;;;24.60;;
35290;SDS011;21411;50.024;19.220;2022-08-18T06:04:03;27.10;;;24.80;;
35290;SDS011;21411;50.024;19.220;2022-08-18T06:06:34;26.20;;;24.10;;
35290;SDS011;21411;50.024;19.220;2022-08-18T06:11:31;24.90;;;22.90;;
35290;SDS011;21411;50.024;19.220;2022-08-18T06:13:58;26.50;;;24.30;;
35290;SDS011;21411;50.024;19.220;2022-08-18T06:19:29;25.20;;;23.20;;
35290;SDS011;21411;50.024;19.220;2022-08-18T06:24:52;23.40;;;21.30;;
35290;SDS011;21411;50.024;19.220;2022-08-18T06:30:11;23.00;;;21.00;;
35290;SDS011;21411;50.024;19.220;2022-08-18T06:41:11;22.20;;;20.30;;
35290;SDS011;21411;50.024;19.220;2022-08-18T06:46:43;19.60;;;17.90;;
35290;SDS011;21411;50.024;19.220;2022-08-18T06:49:20;21.10;;;19.30;;
35290;SDS011;21411;50.024;19.220;2022-08-18T06:51:49;20.30;;;18.50;;
35290;SDS011;21411;50.024;19.220;2022-08-18T06:56:47;20.40;;;18.80;;
35290;SDS011;21411;50.024;19.220;2022-08-18T06:59:19;21.20;;;19.50;;
35290;SDS011;21411;50.024;19.220;2022-08-18T07:04:33;21.10;;;19.30;;
35290;SDS011;21411;50.024;19.220;2022-08-18T07:07:15;20.60;;;18.90;;
35290;SDS011;21411;50.024;19.220;2022-08-18T07:09:46;22.90;;;21.00;;
35290;SDS011;21411;50.024;19.220;2022-08-18T07:12:18;21.20;;;19.50;;
35290;SDS011;21411;50.024;19.220;2022-08-18T07:14:49;21.50;;;19.80;;
35290;SDS011;21411;50.024;19.220;2022-08-18T07:17:21;22.90;;;20.70;;
35290;SDS011;21411;50.024;19.220;2022-08-18T07:19:54;20.80;;;19.10;;
35290;SDS011;21411;50.024;19.220;2022-08-18T07:25:42;21.00;;;19.10;;
35290;SDS011;21411;50.024;19.220;2022-08-18T07:28:28;22.20;;;20.20;;
35290;SDS011;21411;50.024;19.220;2022-08-18T07:33:55;20.40;;;18.60;;
35290;SDS011;21411;50.024;19.220;2022-08-18T07:36:27;19.90;;;18.00;;
35290;SDS011;21411;50.024;19.220;2022-08-18T07:41:49;19.20;;;17.30;;
35290;SDS011;21411;50.024;19.220;2022-08-18T07:44:25;21.10;;;19.20;;
35290;SDS011;21411;50.024;19.220;2022-08-18T07:47:04;21.10;;;19.00;;
35290;SDS011;21411;50.024;19.220;2022-08-18T07:49:38;19.70;;;17.70;;
35290;SDS011;21411;50.024;19.220;2022-08-18T07:52:11;18.80;;;17.10;;
35290;SDS011;21411;50.024;19.220;2022-08-18T07:55:06;19.30;;;17.60;;
35290;SDS011;21411;50.024;19.220;2022-08-18T08:00:41;19.20;;;17.60;;
35290;SDS011;21411;50.024;19.220;2022-08-18T08:06:08;17.70;;;15.90;;
35290;SDS011;21411;50.024;19.220;2022-08-18T08:12:06;17.00;;;15.50;;
35290;SDS011;21411;50.024;19.220;2022-08-18T08:14:49;18.10;;;16.40;;
35290;SDS011;21411;50.024;19.220;2022-08-18T08:17:24;16.40;;;15.00;;
35290;SDS011;21411;50.024;19.220;2022-08-18T08:31:10;15.50;;;14.10;;
35290;SDS011;21411;50.024;19.220;2022-08-18T08:33:46;16.70;;;15.10;;
35290;SDS011;21411;50.024;19.220;2022-08-18T08:36:23;15.60;;;14.10;;
35290;SDS011;21411;50.024;19.220;2022-08-18T08:38:58;15.00;;;13.80;;
35290;SDS011;21411;50.024;19.220;2022-08-18T08:41:40;15.60;;;14.20;;
35290;SDS011;21411;50.024;19.220;2022-08-18T08:44:21;15.40;;;14.10;;
35290;SDS011;21411;50.024;19.220;2022-08-18T08:46:57;18.30;;;14.90;;
35290;SDS011;21411;50.024;19.220;2022-08-18T08:49:34;14.70;;;13.40;;
35290;SDS011;21411;50.024;19.220;2022-08-18T08:52:14;15.00;;;13.60;;
35290;SDS011;21411;50.024;19.220;2022-08-18T08:54:57;14.90;;;13.40;;
35290;SDS011;21411;50.024;19.220;2022-08-18T08:57:34;14.40;;;13.20;;
35290;SDS011;21411;50.024;19.220;2022-08-18T09:00:05;14.60;;;13.40;;
35290;SDS011;21411;50.024;19.220;2022-08-18T09:05:32;15.80;;;14.30;;
35290;SDS011;21411;50.024;19.220;2022-08-18T09:28:18;14.90;;;12.60;;
35290;SDS011;21411;50.024;19.220;2022-08-18T09:33:31;13.70;;;12.40;;
35290;SDS011;21411;50.024;19.220;2022-08-18T09:41:57;11.00;;;10.10;;
35290;SDS011;21411;50.024;19.220;2022-08-18T09:49:47;13.50;;;11.50;;
35290;SDS011;21411;50.024;19.220;2022-08-18T09:55:05;12.20;;;10.90;;
35290;SDS011;21411;50.024;19.220;2022-08-18T09:58:12;12.70;;;11.50;;
35290;SDS011;21411;50.024;19.220;2022-08-18T10:06:40;12.80;;;11.40;;
35290;SDS011;21411;50.024;19.220;2022-08-18T10:22:48;11.00;;;9.90;;
35290;SDS011;21411;50.024;19.220;2022-08-18T10:25:30;10.90;;;10.00;;
35290;SDS011;21411;50.024;19.220;2022-08-18T10:28:03;10.70;;;9.80;;
35290;SDS011;21411;50.024;19.220;2022-08-18T10:33:00;12.30;;;11.20;;
35290;SDS011;21411;50.024;19.220;2022-08-18T10:38:05;12.40;;;11.30;;
35290;SDS011;21411;50.024;19.220;2022-08-18T10:40:37;11.80;;;10.80;;
35290;SDS011;21411;50.024;19.220;2022-08-18T10:45:57;11.90;;;10.80;;
35290;SDS011;21411;50.024;19.220;2022-08-18T10:48:28;14.40;;;11.40;;
35290;SDS011;21411;50.024;19.220;2022-08-18T10:51:02;10.60;;;9.60;;
35290;SDS011;21411;50.024;19.220;2022-08-18T10:53:53;11.90;;;11.00;;
35290;SDS011;21411;50.024;19.220;2022-08-18T10:59:21;12.10;;;10.90;;
35290;SDS011;21411;50.024;19.220;2022-08-18T11:01:57;12.40;;;11.10;;
35290;SDS011;21411;50.024;19.220;2022-08-18T11:04:35;12.10;;;10.90;;
35290;SDS011;21411;50.024;19.220;2022-08-18T11:07:11;11.70;;;10.50;;
35290;SDS011;21411;50.024;19.220;2022-08-18T11:09:41;11.90;;;10.90;;
35290;SDS011;21411;50.024;19.220;2022-08-18T11:12:10;11.80;;;10.40;;
35290;SDS011;21411;50.024;19.220;2022-08-18T11:17:38;12.20;;;11.00;;
35290;SDS011;21411;50.024;19.220;2022-08-18T11:20:27;12.90;;;11.30;;
35290;SDS011;21411;50.024;19.220;2022-08-18T11:22:57;13.00;;;11.70;;
35290;SDS011;21411;50.024;19.220;2022-08-18T11:25:34;14.30;;;12.80;;
35290;SDS011;21411;50.024;19.220;2022-08-18T11:28:10;13.80;;;12.60;;
35290;SDS011;21411;50.024;19.220;2022-08-18T11:30:40;14.30;;;13.20;;
35290;SDS011;21411;50.024;19.220;2022-08-18T11:33:13;14.00;;;12.80;;
35290;SDS011;21411;50.024;19.220;2022-08-18T11:35:46;12.00;;;10.80;;
35290;SDS011;21411;50.024;19.220;2022-08-18T11:38:16;12.00;;;11.00;;
35290;SDS011;21411;50.024;19.220;2022-08-18T11:40:45;12.40;;;11.20;;
35290;SDS011;21411;50.024;19.220;2022-08-18T11:43:18;12.50;;;11.50;;
35290;SDS011;21411;50.024;19.220;2022-08-18T11:45:55;12.20;;;11.10;;
35290;SDS011;21411;50.024;19.220;2022-08-18T11:53:24;12.10;;;10.70;;
35290;SDS011;21411;50.024;19.220;2022-08-18T11:56:01;12.50;;;11.30;;
35290;SDS011;21411;50.024;19.220;2022-08-18T12:01:33;12.80;;;11.50;;
35290;SDS011;21411;50.024;19.220;2022-08-18T12:06:36;12.90;;;11.60;;
35290;SDS011;21411;50.024;19.220;2022-08-18T12:09:14;12.30;;;11.20;;
35290;SDS011;21411;50.024;19.220;2022-08-18T12:11:59;12.10;;;11.10;;
35290;SDS011;21411;50.024;19.220;2022-08-18T12:14:31;12.40;;;11.20;;
35290;SDS011;21411;50.024;19.220;2022-08-18T12:17:14;13.00;;;11.70;;
35290;SDS011;21411;50.024;19.220;2022-08-18T12:19:41;11.90;;;10.90;;
35290;SDS011;21411;50.024;19.220;2022-08-18T12:22:22;12.90;;;11.70;;
35290;SDS011;21411;50.024;19.220;2022-08-18T12:24:50;11.30;;;10.30;;
35290;SDS011;21411;50.024;19.220;2022-08-18T12:27:19;13.20;;;11.20;;
35290;SDS011;21411;50.024;19.220;2022-08-18T12:29:49;12.20;;;11.10;;
35290;SDS011;21411;50.024;19.220;2022-08-18T12:32:18;12.20;;;11.10;;
35290;SDS011;21411;50.024;19.220;2022-08-18T12:37:17;11.30;;;10.20;;
35290;SDS011;21411;50.024;19.220;2022-08-18T12:39:46;12.40;;;11.10;;
35290;SDS011;21411;50.024;19.220;2022-08-18T12:42:13;10.40;;;9.50;;
35290;SDS011;21411;50.024;19.220;2022-08-18T12:44:40;11.70;;;10.70;;
35290;SDS011;21411;50.024;19.220;2022-08-18T12:47:11;10.70;;;9.70;;
35290;SDS011;21411;50.024;19.220;2022-08-18T12:49:44;11.80;;;10.60;;
35290;SDS011;21411;50.024;19.220;2022-08-18T12:52:10;10.50;;;9.50;;
35290;SDS011;21411;50.024;19.220;2022-08-18T12:54:37;11.30;;;10.20;;
35290;SDS011;21411;50.024;19.220;2022-08-18T12:57:06;10.70;;;9.70;;
35290;SDS011;21411;50.024;19.220;2022-08-18T12:59:35;10.60;;;9.70;;
35290;SDS011;21411;50.024;19.220;2022-08-18T13:02:02;9.70;;;9.00;;
35290;SDS011;21411;50.024;19.220;2022-08-18T13:04:28;10.20;;;9.30;;
35290;SDS011;21411;50.024;19.220;2022-08-18T13:06:55;10.60;;;9.60;;
35290;SDS011;21411;50.024;19.220;2022-08-18T13:09:24;10.10;;;9.20;;
35290;SDS011;21411;50.024;19.220;2022-08-18T13:11:51;10.20;;;9.40;;
35290;SDS011;21411;50.024;19.220;2022-08-18T13:14:18;10.50;;;9.70;;
35290;SDS011;21411;50.024;19.220;2022-08-18T13:16:45;10.30;;;9.40;;
35290;SDS011;21411;50.024;19.220;2022-08-18T13:19:12;11.00;;;9.70;;
35290;SDS011;21411;50.024;19.220;2022-08-18T13:21:40;11.50;;;10.50;;
35290;SDS011;21411;50.024;19.220;2022-08-18T13:24:07;9.90;;;9.00;;
35290;SDS011;21411;50.024;19.220;2022-08-18T13:26:35;10.40;;;9.40;;
35290;SDS011;21411;50.024;19.220;2022-08-18T13:29:04;10.00;;;9.10;;
35290;SDS011;21411;50.024;19.220;2022-08-18T13:31:31;10.40;;;9.00;;
35290;SDS011;21411;50.024;19.220;2022-08-18T13:33:58;10.40;;;9.00;;
35290;SDS011;21411;50.024;19.220;2022-08-18T13:36:26;10.40;;;9.60;;
35290;SDS011;21411;50.024;19.220;2022-08-18T13:39:16;11.10;;;9.20;;
35290;SDS011;21411;50.024;19.220;2022-08-18T13:41:47;10.40;;;9.30;;
35290;SDS011;21411;50.024;19.220;2022-08-18T13:44:15;9.90;;;9.20;;
35290;SDS011;21411;50.024;19.220;2022-08-18T13:46:44;12.80;;;9.10;;
35290;SDS011;21411;50.024;19.220;2022-08-18T13:49:12;9.80;;;9.00;;
35290;SDS011;21411;50.024;19.220;2022-08-18T13:51:43;9.80;;;8.80;;
35290;SDS011;21411;50.024;19.220;2022-08-18T13:54:13;10.00;;;8.80;;
35290;SDS011;21411;50.024;19.220;2022-08-18T13:56:45;10.00;;;9.20;;
35290;SDS011;21411;50.024;19.220;2022-08-18T13:59:11;9.40;;;8.50;;
35290;SDS011;21411;50.024;19.220;2022-08-18T14:01:38;10.50;;;9.50;;
35290;SDS011;21411;50.024;19.220;2022-08-18T14:04:06;9.70;;;8.60;;
35290;SDS011;21411;50.024;19.220;2022-08-18T14:06:33;9.40;;;8.80;;
35290;SDS011;21411;50.024;19.220;2022-08-18T14:09:00;9.20;;;8.20;;
35290;SDS011;21411;50.024;19.220;2022-08-18T14:11:30;9.30;;;8.30;;
35290;SDS011;21411;50.024;19.220;2022-08-18T14:13:59;10.50;;;8.50;;
35290;SDS011;21411;50.024;19.220;2022-08-18T14:16:27;9.80;;;9.00;;
35290;SDS011;21411;50.024;19.220;2022-08-18T14:18:53;9.20;;;8.30;;
35290;SDS011;21411;50.024;19.220;2022-08-18T14:21:43;9.20;;;8.00;;
35290;SDS011;21411;50.024;19.220;2022-08-18T14:24:30;9.10;;;8.20;;
35290;SDS011;21411;50.024;19.220;2022-08-18T14:27:18;9.70;;;8.50;;
35290;SDS011;21411;50.024;19.220;2022-08-18T14:29:50;9.30;;;8.50;;
35290;SDS011;21411;50.024;19.220;2022-08-18T14:32:17;9.70;;;8.90;;
35290;SDS011;21411;50.024;19.220;2022-08-18T14:37:12;9.40;;;8.40;;
35290;SDS011;21411;50.024;19.220;2022-08-18T14:39:40;10.00;;;8.80;;
35290;SDS011;21411;50.024;19.220;2022-08-18T14:42:06;9.20;;;8.00;;
35290;SDS011;21411;50.024;19.220;2022-08-18T14:44:33;8.10;;;7.40;;
35290;SDS011;21411;50.024;19.220;2022-08-18T14:47:00;8.30;;;7.60;;
35290;SDS011;21411;50.024;19.220;2022-08-18T14:49:27;9.30;;;8.40;;
35290;SDS011;21411;50.024;19.220;2022-08-18T14:51:59;8.40;;;7.60;;
35290;SDS011;21411;50.024;19.220;2022-08-18T14:54:27;9.90;;;8.50;;
35290;SDS011;21411;50.024;19.220;2022-08-18T14:56:55;9.80;;;8.70;;
35290;SDS011;21411;50.024;19.220;2022-08-18T14:59:21;9.20;;;8.40;;
35290;SDS011;21411;50.024;19.220;2022-08-18T15:01:50;8.90;;;8.10;;
35290;SDS011;21411;50.024;19.220;2022-08-18T15:04:16;8.80;;;7.90;;
35290;SDS011;21411;50.024;19.220;2022-08-18T15:06:43;8.90;;;8.20;;
35290;SDS011;21411;50.024;19.220;2022-08-18T15:09:09;9.70;;;8.60;;
35290;SDS011;21411;50.024;19.220;2022-08-18T15:11:36;8.90;;;8.10;;
35290;SDS011;21411;50.024;19.220;2022-08-18T15:14:02;9.10;;;8.20;;
35290;SDS011;21411;50.024;19.220;2022-08-18T15:16:29;9.80;;;8.90;;
35290;SDS011;21411;50.024;19.220;2022-08-18T15:18:59;9.50;;;8.70;;
35290;SDS011;21411;50.024;19.220;2022-08-18T15:21:27;9.50;;;8.70;;
35290;SDS011;21411;50.024;19.220;2022-08-18T15:24:13;9.10;;;8.30;;
35290;SDS011;21411;50.024;19.220;2022-08-18T15:26:59;8.80;;;7.80;;
35290;SDS011;21411;50.024;19.220;2022-08-18T15:29:28;8.30;;;7.50;;
35290;SDS011;21411;50.024;19.220;2022-08-18T15:31:56;9.00;;;7.70;;
35290;SDS011;21411;50.024;19.220;2022-08-18T15:34:23;8.60;;;7.90;;
35290;SDS011;21411;50.024;19.220;2022-08-18T15:36:50;9.30;;;8.40;;
35290;SDS011;21411;50.024;19.220;2022-08-18T15:39:18;10.40;;;9.30;;
35290;SDS011;21411;50.024;19.220;2022-08-18T15:41:44;8.80;;;8.00;;
35290;SDS011;21411;50.024;19.220;2022-08-18T15:44:15;9.00;;;8.30;;
35290;SDS011;21411;50.024;19.220;2022-08-18T15:49:10;9.00;;;7.90;;
35290;SDS011;21411;50.024;19.220;2022-08-18T15:51:37;9.40;;;8.40;;
35290;SDS011;21411;50.024;19.220;2022-08-18T15:54:06;8.90;;;7.90;;
35290;SDS011;21411;50.024;19.220;2022-08-18T15:56:34;8.50;;;7.60;;
35290;SDS011;21411;50.024;19.220;2022-08-18T15:59:03;8.70;;;7.90;;
35290;SDS011;21411;50.024;19.220;2022-08-18T16:01:33;9.40;;;8.50;;
35290;SDS011;21411;50.024;19.220;2022-08-18T16:04:05;9.90;;;8.70;;
35290;SDS011;21411;50.024;19.220;2022-08-18T16:06:33;9.00;;;8.20;;
35290;SDS011;21411;50.024;19.220;2022-08-18T16:09:02;7.80;;;7.20;;
35290;SDS011;21411;50.024;19.220;2022-08-18T16:11:30;9.80;;;8.10;;
35290;SDS011;21411;50.024;19.220;2022-08-18T16:13:56;9.20;;;8.40;;
35290;SDS011;21411;50.024;19.220;2022-08-18T16:16:26;14.10;;;9.50;;
35290;SDS011;21411;50.024;19.220;2022-08-18T16:18:53;9.60;;;8.80;;
35290;SDS011;21411;50.024;19.220;2022-08-18T16:21:20;9.50;;;8.60;;
35290;SDS011;21411;50.024;19.220;2022-08-18T16:23:50;9.60;;;8.70;;
35290;SDS011;21411;50.024;19.220;2022-08-18T16:26:19;8.60;;;7.90;;
35290;SDS011;21411;50.024;19.220;2022-08-18T16:28:48;9.40;;;7.80;;
35290;SDS011;21411;50.024;19.220;2022-08-18T16:31:18;10.90;;;8.10;;
35290;SDS011;21411;50.024;19.220;2022-08-18T16:33:53;10.10;;;9.30;;
35290;SDS011;21411;50.024;19.220;2022-08-18T16:36:21;9.70;;;8.80;;
35290;SDS011;21411;50.024;19.220;2022-08-18T16:38:53;10.00;;;9.00;;
35290;SDS011;21411;50.024;19.220;2022-08-18T16:41:20;9.70;;;8.70;;
35290;SDS011;21411;50.024;19.220;2022-08-18T16:43:47;9.60;;;8.20;;
35290;SDS011;21411;50.024;19.220;2022-08-18T16:46:16;9.40;;;8.50;;
35290;SDS011;21411;50.024;19.220;2022-08-18T16:48:46;12.30;;;8.30;;
35290;SDS011;21411;50.024;19.220;2022-08-18T16:51:14;9.00;;;8.30;;
35290;SDS011;21411;50.024;19.220;2022-08-18T16:53:42;11.80;;;7.90;;
35290;SDS011;21411;50.024;19.220;2022-08-18T16:56:11;9.50;;;8.30;;
35290;SDS011;21411;50.024;19.220;2022-08-18T16:58:39;9.70;;;8.80;;
35290;SDS011;21411;50.024;19.220;2022-08-18T17:01:25;10.10;;;8.10;;
35290;SDS011;21411;50.024;19.220;2022-08-18T17:04:11;9.80;;;8.30;;
35290;SDS011;21411;50.024;19.220;2022-08-18T17:06:39;9.80;;;8.80;;
35290;SDS011;21411;50.024;19.220;2022-08-18T17:09:06;9.50;;;8.60;;
35290;SDS011;21411;50.024;19.220;2022-08-18T17:11:35;12.70;;;9.60;;
35290;SDS011;21411;50.024;19.220;2022-08-18T17:14:02;9.80;;;8.80;;
35290;SDS011;21411;50.024;19.220;2022-08-18T17:16:29;10.90;;;9.20;;
35290;SDS011;21411;50.024;19.220;2022-08-18T17:18:56;11.40;;;8.80;;
35290;SDS011;21411;50.024;19.220;2022-08-18T17:21:25;10.40;;;9.40;;
35290;SDS011;21411;50.024;19.220;2022-08-18T17:23:53;10.00;;;9.10;;
35290;SDS011;21411;50.024;19.220;2022-08-18T17:26:25;10.10;;;9.10;;
35290;SDS011;21411;50.024;19.220;2022-08-18T17:28:57;11.20;;;9.10;;
35290;SDS011;21411;50.024;19.220;2022-08-18T17:31:30;12.20;;;9.70;;